createdAt,value
2022-12-24T00:04:17.044Z,1566
2022-12-24T00:09:34.972Z,1572
2022-12-24T00:14:53.316Z,1573
2022-12-24T00:20:11.261Z,1580
2022-12-24T00:25:29.465Z,1596
2022-12-24T00:30:47.768Z,1600
2022-12-24T00:36:06.429Z,1600
2022-12-24T00:41:25.460Z,1606
2022-12-24T00:46:44.429Z,1609
2022-12-24T00:52:03.188Z,1616
2022-12-24T00:57:21.946Z,1622
2022-12-24T01:02:40.904Z,1634
2022-12-24T01:08:00.223Z,1639
2022-12-24T01:13:18.703Z,1643
2022-12-24T01:18:36.947Z,1650
2022-12-24T01:23:55.144Z,1648
2022-12-24T01:29:13.917Z,1648
2022-12-24T01:34:32.719Z,1648
2022-12-24T01:39:51.215Z,1646
2022-12-24T01:45:09.687Z,1655
2022-12-24T01:50:28.210Z,1660
2022-12-24T01:55:46.940Z,1668
2022-12-24T02:01:05.814Z,1655
2022-12-24T02:06:24.091Z,1666
2022-12-24T02:11:42.307Z,1677
2022-12-24T02:17:01.100Z,1682
2022-12-24T02:22:19.873Z,1681
2022-12-24T02:27:38.051Z,1681
2022-12-24T02:32:56.561Z,1687
2022-12-24T02:38:14.802Z,1731
2022-12-24T02:43:32.749Z,1703
2022-12-24T02:48:51.213Z,1733
2022-12-24T02:54:09.738Z,1738
2022-12-24T02:59:27.940Z,1751
2022-12-24T03:04:46.716Z,1760
2022-12-24T03:10:04.946Z,1779
2022-12-24T03:15:23.155Z,1786
2022-12-24T03:20:41.907Z,1779
2022-12-24T03:26:00.706Z,1786
2022-12-24T03:31:19.480Z,1783
2022-12-24T03:36:37.882Z,1794
2022-12-24T03:41:56.392Z,1802
2022-12-24T03:47:14.607Z,1806
2022-12-24T03:52:33.098Z,1797
2022-12-24T03:57:51.622Z,1793
2022-12-24T04:03:09.902Z,1804
2022-12-24T04:08:28.531Z,1781
2022-12-24T04:13:46.503Z,1782
2022-12-24T04:19:04.496Z,1785
2022-12-24T04:24:23.004Z,1798
2022-12-24T04:29:41.226Z,1799
2022-12-24T04:34:59.140Z,1794
2022-12-24T04:40:17.921Z,1790
2022-12-24T04:45:36.205Z,1797
2022-12-24T04:50:55.295Z,1794
2022-12-24T04:56:13.199Z,1783
2022-12-24T05:01:31.323Z,1798
2022-12-24T05:06:50.412Z,1812
2022-12-24T05:12:08.878Z,1817
2022-12-24T05:17:27.394Z,1808
2022-12-24T05:22:45.856Z,1805
2022-12-24T05:28:04.084Z,1794
2022-12-24T05:33:22.698Z,1799
2022-12-24T05:38:40.663Z,1789
2022-12-24T05:43:58.858Z,1783
2022-12-24T05:49:17.078Z,1781
2022-12-24T05:54:35.645Z,1780
2022-12-24T05:59:54.396Z,1776
2022-12-24T06:05:12.434Z,1778
2022-12-24T06:10:30.782Z,1783
2022-12-24T06:15:33.677Z,1777
2022-12-24T06:20:52.246Z,1743
2022-12-24T06:26:10.750Z,1741
2022-12-24T06:31:29.019Z,1732
2022-12-24T06:36:47.748Z,1764
2022-12-24T06:42:05.772Z,1773
2022-12-24T06:47:24.540Z,1764
2022-12-24T06:52:43.337Z,1750
2022-12-24T06:58:01.874Z,1767
2022-12-24T07:03:20.124Z,1772
2022-12-24T07:08:38.832Z,1755
2022-12-24T07:13:57.346Z,1759
2022-12-24T07:19:16.118Z,1781
2022-12-24T07:24:34.640Z,1793
2022-12-24T07:29:52.699Z,1806
2022-12-24T07:35:11.513Z,1805
2022-12-24T07:40:30.024Z,1806
2022-12-24T07:45:48.539Z,1815
2022-12-24T07:51:06.735Z,1816
2022-12-24T07:56:25.277Z,1825
2022-12-24T08:01:43.930Z,1842
2022-12-24T08:07:03.651Z,1850
2022-12-24T08:12:22.437Z,1846
2022-12-24T08:17:40.647Z,1855
2022-12-24T08:22:59.432Z,1847
2022-12-24T08:28:18.203Z,1833
2022-12-24T08:33:36.419Z,1820
2022-12-24T08:38:54.947Z,1819
2022-12-24T08:44:13.494Z,1809
2022-12-24T08:49:31.965Z,1802
2022-12-24T08:54:50.491Z,1800
2022-12-24T09:00:08.719Z,1581
2022-12-24T09:05:27.238Z,1720
2022-12-24T09:10:46.032Z,1708
2022-12-24T09:16:04.885Z,1674
2022-12-24T09:21:23.764Z,1631
2022-12-24T09:26:42.522Z,1608
2022-12-24T09:32:01.329Z,1592
2022-12-24T09:37:20.067Z,1579
2022-12-24T09:42:38.572Z,1562
2022-12-24T09:47:57.079Z,1494
2022-12-24T09:53:15.531Z,1423
2022-12-24T09:58:34.016Z,1356
2022-12-24T10:03:52.332Z,1286
2022-12-24T10:09:10.507Z,1231
2022-12-24T10:14:13.074Z,1178
2022-12-24T10:19:31.316Z,1149
2022-12-24T10:24:50.720Z,1126
2022-12-24T10:30:13.353Z,1100
2022-12-24T10:35:36.151Z,1080
2022-12-24T10:40:54.352Z,1075
2022-12-24T10:46:12.923Z,1087
2022-12-24T10:51:32.064Z,1095
2022-12-24T10:56:50.244Z,1101
2022-12-24T11:02:08.769Z,1107
2022-12-24T11:07:27.691Z,1123
2022-12-24T11:12:55.850Z,1146
2022-12-24T11:18:56.318Z,1174
2022-12-24T11:24:14.801Z,1183
2022-12-24T11:29:32.768Z,1199
2022-12-24T11:34:51.511Z,1206
2022-12-24T11:40:10.445Z,1224
2022-12-24T11:45:28.981Z,1244
2022-12-24T11:50:47.751Z,1264
2022-12-24T11:56:06.090Z,1295
2022-12-24T12:01:24.936Z,1348
2022-12-24T12:06:43.903Z,1387
2022-12-24T12:12:02.144Z,1418
2022-12-24T12:17:20.892Z,1417
2022-12-24T12:22:39.376Z,1421
2022-12-24T12:27:57.619Z,1423
2022-12-24T12:33:16.327Z,1422
2022-12-24T12:38:35.004Z,1430
2022-12-24T12:43:53.823Z,1440
2022-12-24T12:49:12.588Z,1447
2022-12-24T12:54:31.323Z,1454
2022-12-24T12:59:50.193Z,1451
2022-12-24T13:05:09.205Z,1448
2022-12-24T13:10:27.954Z,1440
2022-12-24T13:15:46.538Z,1335
2022-12-24T13:21:04.891Z,1337
2022-12-24T13:26:23.079Z,1337
2022-12-24T13:31:25.875Z,1344
2022-12-24T13:36:29.427Z,1388
2022-12-24T13:41:47.620Z,1438
2022-12-24T13:47:06.432Z,1452
2022-12-24T13:52:24.912Z,1483
2022-12-24T13:57:43.072Z,1543
2022-12-24T14:03:01.702Z,1577
2022-12-24T14:08:20.135Z,1581
2022-12-24T14:13:38.628Z,1579
2022-12-24T14:18:57.436Z,1578
2022-12-24T14:24:15.443Z,1590
2022-12-24T14:29:33.924Z,1590
2022-12-24T14:34:52.420Z,1597
2022-12-24T14:40:11.163Z,1607
2022-12-24T14:45:29.723Z,1600
2022-12-24T14:50:48.535Z,1581
2022-12-24T14:56:07.014Z,1570
2022-12-24T15:01:25.640Z,1554
2022-12-24T15:06:45.259Z,1538
2022-12-24T15:12:03.508Z,1527
2022-12-24T15:17:22.390Z,1513
2022-12-24T15:22:40.883Z,1500
2022-12-24T15:27:59.127Z,1490
2022-12-24T15:33:17.598Z,1482
2022-12-24T15:38:36.388Z,1471
2022-12-24T15:43:54.874Z,1456
2022-12-24T15:49:13.081Z,1440
2022-12-24T15:54:31.310Z,1432
2022-12-24T15:59:50.047Z,1424
2022-12-24T16:05:08.267Z,1407
2022-12-24T16:10:27.056Z,1394
2022-12-24T16:15:29.751Z,1390
2022-12-24T16:20:48.401Z,1381
2022-12-24T16:26:06.937Z,1362
2022-12-24T16:31:26.403Z,1350
2022-12-24T16:36:44.974Z,1346
2022-12-24T16:42:03.781Z,1328
2022-12-24T16:47:22.018Z,1318
2022-12-24T16:52:40.517Z,1314
2022-12-24T16:57:59.012Z,1303
2022-12-24T17:03:17.073Z,1294
2022-12-24T17:08:36.036Z,1293
2022-12-24T17:13:54.552Z,1276
2022-12-24T17:19:13.127Z,1266
2022-12-24T17:24:31.341Z,1256
2022-12-24T17:29:50.149Z,1253
2022-12-24T17:35:08.683Z,1236
2022-12-24T17:40:27.164Z,1226
2022-12-24T17:45:45.397Z,1211
2022-12-24T17:51:03.923Z,1204
2022-12-24T17:56:22.652Z,1190
2022-12-24T18:01:41.245Z,1182
2022-12-24T18:07:02.628Z,1173
2022-12-24T18:12:21.673Z,1160
2022-12-24T18:17:39.917Z,1154
2022-12-24T18:22:58.428Z,1142
2022-12-24T18:28:16.915Z,1133
2022-12-24T18:33:35.731Z,1128
2022-12-24T18:38:54.232Z,1121
2022-12-24T18:44:12.716Z,1112
2022-12-24T18:49:31.258Z,1102
2022-12-24T18:54:49.451Z,1097
2022-12-24T19:00:08.221Z,1088
2022-12-24T19:05:26.933Z,1078
2022-12-24T19:10:45.148Z,1071
2022-12-24T19:16:03.396Z,1062
2022-12-24T19:21:22.555Z,1048
2022-12-24T19:26:41.402Z,1040
2022-12-24T19:32:00.241Z,1027
2022-12-24T19:37:18.884Z,1020
2022-12-24T19:42:37.660Z,1011
2022-12-24T19:47:56.439Z,1003
2022-12-24T19:53:15.253Z,1002
2022-12-24T19:58:33.447Z,990
2022-12-24T20:03:51.945Z,983
2022-12-24T20:09:10.467Z,980
2022-12-24T20:14:28.928Z,980
2022-12-24T20:19:47.413Z,975
2022-12-24T20:25:06.222Z,968
2022-12-24T20:30:24.412Z,959
2022-12-24T20:35:42.885Z,949
2022-12-24T20:41:01.770Z,945
2022-12-24T20:46:20.144Z,944
2022-12-24T20:51:38.716Z,932
2022-12-24T20:56:58.887Z,927
2022-12-24T21:02:17.985Z,921
2022-12-24T21:07:37.590Z,915
2022-12-24T21:12:56.363Z,912
2022-12-24T21:18:15.127Z,905
2022-12-24T21:23:33.924Z,903
2022-12-24T21:28:52.107Z,903
2022-12-24T21:34:10.036Z,898
2022-12-24T21:39:28.794Z,893
2022-12-24T21:44:47.316Z,891
2022-12-24T21:50:06.115Z,882
2022-12-24T21:55:24.871Z,874
2022-12-24T22:00:43.124Z,861
2022-12-24T22:06:01.072Z,863
2022-12-24T22:11:19.558Z,851
2022-12-24T22:16:38.127Z,843
2022-12-24T22:21:57.224Z,843
2022-12-24T22:27:15.702Z,834
2022-12-24T22:32:34.235Z,828
2022-12-24T22:37:55.962Z,822
2022-12-24T22:43:18.517Z,810
2022-12-24T22:48:37.023Z,806
2022-12-24T22:53:55.772Z,797
2022-12-24T22:59:14.550Z,794
2022-12-24T23:04:33.325Z,792
2022-12-24T23:09:52.083Z,792
2022-12-24T23:15:10.610Z,783
2022-12-24T23:20:29.109Z,780
2022-12-24T23:25:47.566Z,781
2022-12-24T23:31:06.113Z,777
2022-12-24T23:36:25.116Z,772
2022-12-24T23:41:43.320Z,770
2022-12-24T23:47:01.856Z,764
2022-12-24T23:52:20.913Z,760
2022-12-24T23:57:39.139Z,756
